Time;durP1;ratioP1;P1;durP2;ratioP2;P2;SDS_P1;SDS_P2;PMS_P1;PMS_P2;Temp;Humidity;BMP_temperature;BMP_pressure;BME280_temperature;BME280_humidity;BME280_pressure;Samples;Min_cycle;Max_cycle;Signal;HPM_P1;HPM_P2
2023/12/12 00:01:29;;;;;;;7.30;5.20;;;;;;;;;;85812;210;3031750;-36
2023/12/12 00:04:06;;;;;;;7.40;5.20;;;;;;;;;;85721;210;3031742;-35
2023/12/12 00:06:45;;;;;;;7.00;5.10;;;;;;;;;;85590;210;3028991;-36
2023/12/12 00:09:21;;;;;;;7.50;5.50;;;;;;;;;;85651;210;3027759;-37
2023/12/12 00:12:02;;;;;;;8.30;5.30;;;;;;;;;;85613;210;3030479;-35
2023/12/12 00:14:38;;;;;;;7.50;5.30;;;;;;;;;;85604;210;3031607;-35
2023/12/12 00:17:18;;;;;;;8.10;5.40;;;;;;;;;;85553;210;3028570;-36
2023/12/12 00:19:55;;;;;;;7.50;5.20;;;;;;;;;;85623;210;3026945;-36
2023/12/12 00:22:31;;;;;;;7.70;5.40;;;;;;;;;;85640;210;3031954;-36
2023/12/12 00:25:08;;;;;;;7.30;5.40;;;;;;;;;;85573;210;3031768;-36
2023/12/12 00:27:47;;;;;;;7.50;5.20;;;;;;;;;;85572;210;3028169;-36
2023/12/12 00:30:25;;;;;;;7.50;5.10;;;;;;;;;;85620;210;3028216;-36
2023/12/12 00:33:01;;;;;;;6.80;5.30;;;;;;;;;;85616;210;3030344;-36
2023/12/12 00:35:40;;;;;;;7.10;4.90;;;;;;;;;;85654;210;3031214;-36
2023/12/12 00:38:17;;;;;;;7.40;4.90;;;;;;;;;;85652;210;3028732;-36
2023/12/12 00:40:57;;;;;;;8.00;5.10;;;;;;;;;;85651;210;3027124;-35
2023/12/12 00:43:33;;;;;;;7.80;4.90;;;;;;;;;;85614;210;3030896;-36
2023/12/12 00:46:10;;;;;;;7.30;5.10;;;;;;;;;;85595;210;3031433;-35
2023/12/12 00:48:46;;;;;;;7.80;5.30;;;;;;;;;;85719;210;3033998;-36
2023/12/12 00:51:23;;;;;;;7.50;5.20;;;;;;;;;;85655;210;3026991;-36
2023/12/12 00:53:59;;;;;;;7.00;5.00;;;;;;;;;;85624;210;3031276;-36
2023/12/12 00:56:38;;;;;;;7.40;5.10;;;;;;;;;;85627;210;3031215;-36
2023/12/12 00:59:14;;;;;;;7.00;5.20;;;;;;;;;;85630;210;3034501;-36
2023/12/12 01:01:51;;;;;;;6.60;4.70;;;;;;;;;;85667;210;3027112;-36
2023/12/12 01:04:27;;;;;;;7.30;5.30;;;;;;;;;;85700;210;3030912;-37
2023/12/12 01:07:04;;;;;;;7.10;4.80;;;;;;;;;;85654;210;3032645;-37
2023/12/12 01:09:41;;;;;;;7.10;5.20;;;;;;;;;;85626;210;3028732;-36
2023/12/12 01:12:17;;;;;;;6.70;4.70;;;;;;;;;;85665;210;3027155;-36
2023/12/12 01:14:58;;;;;;;7.80;5.10;;;;;;;;;;85619;210;3031708;-37
2023/12/12 01:17:35;;;;;;;7.30;4.70;;;;;;;;;;85632;210;3031275;-36
2023/12/12 01:20:13;;;;;;;7.30;5.20;;;;;;;;;;85618;210;3028582;-36
2023/12/12 01:22:49;;;;;;;7.40;5.00;;;;;;;;;;85663;210;3027353;-37
2023/12/12 01:25:26;;;;;;;7.60;4.90;;;;;;;;;;85637;210;3030728;-36
2023/12/12 01:28:02;;;;;;;7.50;5.20;;;;;;;;;;85678;210;3031811;-36
2023/12/12 01:30:42;;;;;;;7.60;5.60;;;;;;;;;;85608;210;3028019;-35
2023/12/12 01:33:19;;;;;;;7.40;5.30;;;;;;;;;;85626;210;3027859;-35
2023/12/12 01:35:56;;;;;;;7.30;5.20;;;;;;;;;;85589;210;3030771;-36
2023/12/12 01:38:34;;;;;;;7.20;5.00;;;;;;;;;;85557;210;3031404;-36
2023/12/12 01:41:11;;;;;;;7.40;5.10;;;;;;;;;;85604;210;3028159;-36
2023/12/12 01:43:47;;;;;;;6.80;4.70;;;;;;;;;;85586;210;3026944;-36
2023/12/12 01:46:24;;;;;;;6.70;4.80;;;;;;;;;;85626;210;3030421;-36
2023/12/12 01:49:01;;;;;;;6.70;4.80;;;;;;;;;;85554;210;3031734;-36
2023/12/12 01:51:39;;;;;;;7.00;5.00;;;;;;;;;;85635;210;3028566;-37
2023/12/12 01:54:18;;;;;;;6.80;4.80;;;;;;;;;;85671;210;3028718;-37
2023/12/12 01:56:55;;;;;;;6.90;5.10;;;;;;;;;;85583;210;3030435;-36
2023/12/12 01:59:32;;;;;;;7.20;4.90;;;;;;;;;;85620;210;3031503;-36
2023/12/12 02:02:11;;;;;;;7.10;4.70;;;;;;;;;;85613;210;3028301;-36
2023/12/12 02:04:54;;;;;;;6.80;5.00;;;;;;;;;;85607;210;3027649;-36
2023/12/12 02:07:33;;;;;;;6.90;5.00;;;;;;;;;;85692;210;3031054;-37
2023/12/12 02:10:11;;;;;;;6.40;4.70;;;;;;;;;;85636;210;3031587;-36
2023/12/12 02:12:47;;;;;;;7.30;4.70;;;;;;;;;;85627;210;3028266;-37
2023/12/12 02:15:23;;;;;;;6.70;5.10;;;;;;;;;;85636;210;3027471;-36
2023/12/12 02:18:02;;;;;;;7.00;4.90;;;;;;;;;;85615;210;3031892;-35
2023/12/12 02:20:38;;;;;;;7.20;4.80;;;;;;;;;;85566;210;3031512;-36
2023/12/12 02:23:16;;;;;;;6.70;5.00;;;;;;;;;;85576;210;3028032;-36
2023/12/12 02:25:55;;;;;;;7.50;5.00;;;;;;;;;;85605;210;3027044;-36
2023/12/12 02:28:31;;;;;;;6.80;4.70;;;;;;;;;;85617;210;3030660;-35
2023/12/12 02:31:08;;;;;;;6.60;4.60;;;;;;;;;;85535;210;3038264;-36
2023/12/12 02:33:44;;;;;;;6.50;4.80;;;;;;;;;;85631;210;3028795;-37
2023/12/12 02:36:21;;;;;;;6.70;5.00;;;;;;;;;;85622;210;3027040;-37
2023/12/12 02:38:57;;;;;;;6.70;4.70;;;;;;;;;;85627;210;3030892;-36
2023/12/12 02:41:33;;;;;;;6.50;4.60;;;;;;;;;;85661;210;3039539;-36
2023/12/12 02:44:09;;;;;;;6.30;4.40;;;;;;;;;;85618;210;3028652;-36
2023/12/12 02:46:46;;;;;;;6.70;5.00;;;;;;;;;;85664;210;3028626;-37
2023/12/12 02:49:22;;;;;;;7.60;4.90;;;;;;;;;;85572;210;3030347;-37
2023/12/12 02:51:59;;;;;;;6.20;4.80;;;;;;;;;;85588;210;3032182;-36
2023/12/12 02:54:36;;;;;;;6.70;4.80;;;;;;;;;;85654;210;3027879;-36
2023/12/12 02:57:14;;;;;;;6.50;4.60;;;;;;;;;;85706;210;3027559;-36
2023/12/12 02:59:50;;;;;;;6.90;4.80;;;;;;;;;;85686;210;3031669;-36
2023/12/12 03:02:27;;;;;;;6.50;4.70;;;;;;;;;;85788;210;3031284;-36
2023/12/12 03:05:06;;;;;;;7.00;4.70;;;;;;;;;;85795;210;3029332;-37
2023/12/12 03:07:42;;;;;;;6.10;4.70;;;;;;;;;;85799;210;3027605;-36
2023/12/12 03:10:19;;;;;;;7.40;4.70;;;;;;;;;;85705;210;3032905;-37
2023/12/12 03:12:55;;;;;;;6.40;4.50;;;;;;;;;;84622;211;3031843;-35
2023/12/12 03:15:31;;;;;;;7.00;4.80;;;;;;;;;;85727;210;3028359;-35
2023/12/12 03:18:07;;;;;;;7.30;4.80;;;;;;;;;;85835;210;3026885;-36
2023/12/12 03:20:44;;;;;;;7.20;4.70;;;;;;;;;;85705;210;3031085;-36
2023/12/12 03:23:20;;;;;;;6.90;4.90;;;;;;;;;;85788;210;3031797;-36
2023/12/12 03:25:56;;;;;;;6.70;4.80;;;;;;;;;;85790;210;3028184;-36
2023/12/12 03:28:33;;;;;;;7.60;5.10;;;;;;;;;;85791;210;3027959;-36
2023/12/12 03:31:10;;;;;;;6.60;4.90;;;;;;;;;;85700;210;3030533;-36
2023/12/12 03:33:47;;;;;;;6.70;4.90;;;;;;;;;;85778;210;3031032;-37
2023/12/12 03:36:23;;;;;;;7.80;5.10;;;;;;;;;;85850;210;3028523;-35
2023/12/12 03:38:59;;;;;;;7.10;5.00;;;;;;;;;;85867;210;3027538;-36
2023/12/12 03:41:37;;;;;;;7.20;4.80;;;;;;;;;;85598;210;3031212;-36
2023/12/12 03:44:14;;;;;;;6.90;4.70;;;;;;;;;;85596;210;3032098;-36
2023/12/12 03:46:50;;;;;;;7.20;4.70;;;;;;;;;;85582;210;3028234;-36
2023/12/12 03:49:30;;;;;;;7.00;4.70;;;;;;;;;;85570;210;3026852;-37
2023/12/12 03:52:07;;;;;;;6.30;4.60;;;;;;;;;;85596;210;3030721;-37
2023/12/12 03:54:44;;;;;;;6.70;5.00;;;;;;;;;;85626;210;3031196;-36
2023/12/12 03:57:24;;;;;;;7.50;4.90;;;;;;;;;;85613;210;3028372;-36
2023/12/12 04:00:02;;;;;;;6.80;4.80;;;;;;;;;;85692;210;3027490;-35
2023/12/12 04:02:39;;;;;;;7.90;5.30;;;;;;;;;;85622;210;3030413;-36
2023/12/12 04:05:18;;;;;;;7.70;4.90;;;;;;;;;;85607;210;3031787;-37
2023/12/12 04:07:56;;;;;;;7.70;5.10;;;;;;;;;;85629;210;3028427;-37
2023/12/12 04:10:35;;;;;;;7.20;4.60;;;;;;;;;;85641;210;3027619;-36
2023/12/12 04:13:12;;;;;;;7.40;4.90;;;;;;;;;;85566;210;3030678;-37
2023/12/12 04:15:50;;;;;;;7.10;4.50;;;;;;;;;;85627;210;3031725;-36
2023/12/12 04:18:26;;;;;;;7.20;5.00;;;;;;;;;;85680;210;3027826;-36
2023/12/12 04:21:03;;;;;;;7.20;4.80;;;;;;;;;;85641;210;3027239;-35
2023/12/12 04:23:42;;;;;;;8.30;5.00;;;;;;;;;;85732;210;3035877;-37
2023/12/12 04:26:20;;;;;;;7.30;4.60;;;;;;;;;;85606;210;3033431;-37
2023/12/12 04:28:56;;;;;;;7.20;4.70;;;;;;;;;;85620;210;3028062;-36
2023/12/12 04:31:32;;;;;;;7.20;5.10;;;;;;;;;;85650;210;3028288;-37
2023/12/12 04:34:09;;;;;;;6.90;4.90;;;;;;;;;;85615;210;3036572;-36
2023/12/12 04:36:46;;;;;;;6.90;4.70;;;;;;;;;;85692;210;3031861;-36
2023/12/12 04:39:23;;;;;;;7.40;4.60;;;;;;;;;;85612;210;3029012;-37
2023/12/12 04:41:59;;;;;;;6.70;4.50;;;;;;;;;;85583;210;3027599;-36
2023/12/12 04:44:36;;;;;;;6.40;4.80;;;;;;;;;;85635;210;3031206;-36
2023/12/12 04:47:13;;;;;;;7.00;4.50;;;;;;;;;;85661;210;3031537;-35
2023/12/12 04:49:51;;;;;;;7.00;4.80;;;;;;;;;;85647;211;3028364;-35
2023/12/12 04:52:28;;;;;;;6.60;4.40;;;;;;;;;;85615;210;3027051;-37
2023/12/12 04:55:06;;;;;;;6.50;4.50;;;;;;;;;;85650;210;3030339;-35
2023/12/12 04:57:46;;;;;;;6.50;4.30;;;;;;;;;;85667;210;3031852;-36
2023/12/12 05:00:23;;;;;;;6.60;4.50;;;;;;;;;;85595;210;3028633;-36
2023/12/12 05:02:59;;;;;;;6.30;4.40;;;;;;;;;;85598;210;3027378;-36
2023/12/12 05:05:35;;;;;;;6.90;4.70;;;;;;;;;;85662;210;3030998;-35
2023/12/12 05:08:12;;;;;;;6.50;4.30;;;;;;;;;;85613;210;3031885;-36
2023/12/12 05:10:50;;;;;;;6.60;4.20;;;;;;;;;;85634;210;3028518;-36
2023/12/12 05:13:27;;;;;;;6.40;4.30;;;;;;;;;;85588;210;3027686;-36
2023/12/12 05:16:04;;;;;;;6.40;4.50;;;;;;;;;;85606;210;3030592;-36
2023/12/12 05:18:56;;;;;;;6.30;4.40;;;;;;;;;;85659;210;3033738;-37
2023/12/12 05:21:33;;;;;;;7.40;4.50;;;;;;;;;;85669;210;3029335;-36
2023/12/12 05:24:10;;;;;;;6.40;4.30;;;;;;;;;;85604;210;3027821;-36
2023/12/12 05:26:46;;;;;;;6.80;4.30;;;;;;;;;;85592;210;3031600;-36
2023/12/12 05:29:26;;;;;;;6.90;4.40;;;;;;;;;;85599;210;3031357;-36
2023/12/12 05:32:05;;;;;;;6.50;4.40;;;;;;;;;;85597;210;3029104;-36
2023/12/12 05:34:43;;;;;;;6.50;4.20;;;;;;;;;;85542;210;3027124;-36
2023/12/12 05:37:21;;;;;;;6.20;4.20;;;;;;;;;;85621;210;3031953;-36
2023/12/12 05:39:58;;;;;;;7.10;4.40;;;;;;;;;;85642;210;3031583;-35
2023/12/12 05:42:36;;;;;;;6.60;4.30;;;;;;;;;;85658;210;3028809;-36
2023/12/12 05:45:13;;;;;;;7.30;4.60;;;;;;;;;;85679;210;3027449;-37
2023/12/12 05:47:49;;;;;;;7.00;4.20;;;;;;;;;;85659;210;3031981;-37
2023/12/12 05:50:26;;;;;;;6.30;4.40;;;;;;;;;;85643;210;3031984;-36
2023/12/12 05:53:02;;;;;;;7.30;4.80;;;;;;;;;;85694;210;3027955;-37
2023/12/12 05:55:39;;;;;;;7.70;4.70;;;;;;;;;;85612;210;3032769;-37
2023/12/12 05:58:18;;;;;;;6.50;4.20;;;;;;;;;;85585;210;3030580;-38
2023/12/12 06:00:55;;;;;;;6.50;4.40;;;;;;;;;;85612;210;3031408;-36
2023/12/12 06:03:33;;;;;;;6.60;4.10;;;;;;;;;;85620;210;3027818;-36
2023/12/12 06:06:13;;;;;;;6.10;4.10;;;;;;;;;;85667;210;3034892;-38
2023/12/12 06:08:51;;;;;;;6.80;4.50;;;;;;;;;;85664;210;3030986;-38
2023/12/12 06:11:27;;;;;;;7.00;4.70;;;;;;;;;;85664;210;3031957;-36
2023/12/12 06:14:05;;;;;;;6.20;4.50;;;;;;;;;;85662;210;3028465;-36
2023/12/12 06:16:41;;;;;;;6.60;4.50;;;;;;;;;;85624;210;3027778;-36
2023/12/12 06:19:19;;;;;;;6.80;4.40;;;;;;;;;;85606;210;3030512;-37
2023/12/12 06:21:57;;;;;;;6.70;4.50;;;;;;;;;;85650;210;3032024;-37
2023/12/12 06:24:34;;;;;;;7.20;4.30;;;;;;;;;;85583;210;3028244;-36
2023/12/12 06:27:13;;;;;;;6.10;4.20;;;;;;;;;;85682;210;3027762;-37
2023/12/12 06:29:52;;;;;;;6.50;4.30;;;;;;;;;;85604;210;3031025;-36
2023/12/12 06:32:28;;;;;;;6.70;4.40;;;;;;;;;;85641;210;3031463;-35
2023/12/12 06:35:05;;;;;;;6.60;4.10;;;;;;;;;;85638;210;3030873;-35
2023/12/12 06:37:43;;;;;;;6.20;4.30;;;;;;;;;;85659;210;3027417;-36
2023/12/12 06:40:26;;;;;;;6.60;4.30;;;;;;;;;;85721;210;3031878;-37
2023/12/12 06:43:04;;;;;;;6.30;4.20;;;;;;;;;;85650;210;3031938;-36
2023/12/12 06:45:50;;;;;;;7.00;4.50;;;;;;;;;;85665;210;3028560;-36
2023/12/12 06:48:26;;;;;;;6.40;4.30;;;;;;;;;;85654;210;3027613;-36
2023/12/12 06:51:04;;;;;;;6.20;4.20;;;;;;;;;;85650;210;3031851;-37
2023/12/12 06:53:40;;;;;;;6.30;4.20;;;;;;;;;;85615;210;3032988;-36
2023/12/12 06:56:27;;;;;;;6.10;4.20;;;;;;;;;;85613;210;3027955;-37
2023/12/12 06:59:14;;;;;;;6.00;4.20;;;;;;;;;;85709;210;3026903;-38
2023/12/12 07:01:56;;;;;;;7.00;4.80;;;;;;;;;;85812;210;3030988;-37
2023/12/12 07:04:33;;;;;;;6.60;4.80;;;;;;;;;;85772;210;3030997;-37
2023/12/12 07:07:09;;;;;;;7.40;5.00;;;;;;;;;;85753;210;3028508;-43
2023/12/12 07:09:47;;;;;;;6.20;4.50;;;;;;;;;;85849;210;3027030;-41
2023/12/12 07:12:36;;;;;;;6.80;4.90;;;;;;;;;;85598;210;3031282;-39
2023/12/12 07:15:14;;;;;;;7.00;4.70;;;;;;;;;;85631;210;3031209;-38
2023/12/12 07:17:53;;;;;;;6.60;4.70;;;;;;;;;;85585;211;3036630;-39
2023/12/12 07:20:32;;;;;;;7.10;4.80;;;;;;;;;;85597;210;3028078;-37
2023/12/12 07:23:10;;;;;;;7.80;4.90;;;;;;;;;;85575;210;3031870;-35
2023/12/12 07:25:50;;;;;;;6.70;4.80;;;;;;;;;;85542;210;3031838;-38
2023/12/12 07:28:27;;;;;;;7.00;4.80;;;;;;;;;;85593;210;3029935;-38
2023/12/12 07:31:04;;;;;;;6.80;4.70;;;;;;;;;;85586;210;3027982;-38
2023/12/12 07:33:41;;;;;;;6.40;4.60;;;;;;;;;;85717;211;3030391;-37
2023/12/12 07:36:19;;;;;;;6.30;4.70;;;;;;;;;;85565;211;3031390;-38
2023/12/12 07:39:00;;;;;;;6.00;4.20;;;;;;;;;;85623;211;3029458;-38
2023/12/12 07:41:37;;;;;;;6.70;4.80;;;;;;;;;;85607;210;3028518;-38
2023/12/12 07:44:18;;;;;;;6.50;4.50;;;;;;;;;;85636;210;3030419;-38
2023/12/12 07:46:56;;;;;;;6.60;4.60;;;;;;;;;;85646;210;3031488;-38
2023/12/12 07:49:32;;;;;;;6.30;4.70;;;;;;;;;;85603;210;3028108;-39
2023/12/12 07:52:09;;;;;;;6.60;4.60;;;;;;;;;;85615;210;3029566;-39
2023/12/12 07:54:46;;;;;;;6.80;4.60;;;;;;;;;;85700;210;3031083;-37
2023/12/12 07:57:22;;;;;;;6.50;4.60;;;;;;;;;;85599;210;3031591;-38
2023/12/12 08:00:01;;;;;;;6.60;4.50;;;;;;;;;;85675;210;3028722;-38
2023/12/12 08:02:40;;;;;;;6.50;4.70;;;;;;;;;;85618;210;3027428;-37
2023/12/12 08:05:16;;;;;;;6.70;4.50;;;;;;;;;;85655;211;3031308;-38
2023/12/12 08:07:53;;;;;;;7.40;5.20;;;;;;;;;;85585;211;3031089;-37
2023/12/12 08:10:30;;;;;;;6.30;4.70;;;;;;;;;;85607;211;3028024;-39
2023/12/12 08:13:08;;;;;;;7.40;4.80;;;;;;;;;;85639;211;3028436;-38
2023/12/12 08:15:44;;;;;;;7.90;4.60;;;;;;;;;;85655;211;3031818;-41
2023/12/12 08:18:20;;;;;;;7.50;5.10;;;;;;;;;;85601;210;3031166;-37
2023/12/12 08:20:57;;;;;;;6.80;4.80;;;;;;;;;;85598;210;3027631;-37
2023/12/12 08:23:34;;;;;;;6.70;5.10;;;;;;;;;;85610;210;3027479;-37
2023/12/12 08:26:12;;;;;;;6.50;4.60;;;;;;;;;;85592;210;3031218;-38
2023/12/12 08:28:55;;;;;;;6.90;4.70;;;;;;;;;;85573;210;3031560;-37
2023/12/12 08:31:37;;;;;;;6.80;4.70;;;;;;;;;;85599;210;3028604;-37
2023/12/12 08:34:16;;;;;;;7.20;4.80;;;;;;;;;;85625;210;3026998;-37
2023/12/12 08:36:55;;;;;;;7.90;5.20;;;;;;;;;;85620;210;3030474;-37
2023/12/12 08:39:35;;;;;;;7.10;5.10;;;;;;;;;;85620;210;3037189;-37
2023/12/12 08:42:12;;;;;;;6.60;5.00;;;;;;;;;;85627;210;3028481;-38
2023/12/12 08:44:48;;;;;;;7.00;5.10;;;;;;;;;;85641;210;3027568;-38
2023/12/12 08:47:26;;;;;;;6.50;4.90;;;;;;;;;;85651;211;3030687;-38
2023/12/12 08:50:10;;;;;;;7.60;5.10;;;;;;;;;;85602;210;3037801;-38
2023/12/12 08:52:46;;;;;;;7.50;5.20;;;;;;;;;;85615;210;3028736;-37
2023/12/12 08:55:23;;;;;;;6.90;5.20;;;;;;;;;;85670;210;3027951;-38
2023/12/12 08:57:59;;;;;;;7.50;5.00;;;;;;;;;;85605;210;3031132;-37
2023/12/12 09:00:36;;;;;;;7.60;5.10;;;;;;;;;;85632;210;3031586;-38
2023/12/12 09:03:13;;;;;;;7.50;5.20;;;;;;;;;;85642;210;3028620;-38
2023/12/12 09:05:51;;;;;;;8.10;5.20;;;;;;;;;;85650;210;3027868;-37
2023/12/12 09:08:28;;;;;;;7.50;5.50;;;;;;;;;;85645;210;3030387;-37
2023/12/12 09:11:07;;;;;;;8.40;5.20;;;;;;;;;;85675;210;3031720;-38
2023/12/12 09:13:47;;;;;;;7.90;5.40;;;;;;;;;;85620;210;3028383;-38
2023/12/12 09:16:23;;;;;;;7.60;5.40;;;;;;;;;;85698;210;3028639;-38
2023/12/12 09:19:00;;;;;;;8.80;5.50;;;;;;;;;;85626;210;3030566;-38
2023/12/12 09:21:41;;;;;;;7.60;5.30;;;;;;;;;;85644;210;3032174;-39
2023/12/12 09:24:19;;;;;;;8.30;5.60;;;;;;;;;;85644;210;3029328;-40
2023/12/12 09:27:02;;;;;;;7.20;5.20;;;;;;;;;;85595;210;3027544;-38
2023/12/12 09:29:38;;;;;;;7.70;5.50;;;;;;;;;;85577;210;3030983;-37
2023/12/12 09:32:16;;;;;;;7.00;5.30;;;;;;;;;;85641;210;3031930;-38
2023/12/12 09:34:55;;;;;;;7.90;5.30;;;;;;;;;;85598;210;3027895;-38
2023/12/12 09:37:31;;;;;;;8.00;5.60;;;;;;;;;;85611;210;3027900;-38
2023/12/12 09:40:11;;;;;;;7.20;5.60;;;;;;;;;;85649;210;3030292;-37
2023/12/12 09:42:51;;;;;;;8.00;5.40;;;;;;;;;;85633;210;3031989;-37
2023/12/12 09:45:27;;;;;;;7.80;5.00;;;;;;;;;;85619;210;3028223;-38
2023/12/12 09:48:05;;;;;;;7.50;5.20;;;;;;;;;;85691;210;3027519;-38
2023/12/12 09:50:43;;;;;;;7.50;5.40;;;;;;;;;;85580;210;3031940;-39
2023/12/12 09:53:20;;;;;;;7.80;5.40;;;;;;;;;;85601;210;3031194;-38
2023/12/12 09:55:57;;;;;;;7.30;5.60;;;;;;;;;;85658;210;3028348;-38
2023/12/12 09:58:36;;;;;;;7.40;5.40;;;;;;;;;;85574;210;3028069;-38
2023/12/12 10:01:12;;;;;;;7.00;5.10;;;;;;;;;;85547;210;3032139;-38
2023/12/12 10:03:49;;;;;;;7.00;4.90;;;;;;;;;;85575;210;3031580;-37
2023/12/12 10:06:31;;;;;;;7.30;4.90;;;;;;;;;;85654;210;3028809;-37
2023/12/12 10:09:10;;;;;;;7.50;5.30;;;;;;;;;;85569;210;3027518;-37
2023/12/12 10:11:48;;;;;;;6.90;5.00;;;;;;;;;;85569;210;3036453;-37
2023/12/12 10:14:39;;;;;;;7.40;5.00;;;;;;;;;;85587;210;3031283;-38
2023/12/12 10:17:16;;;;;;;7.40;5.10;;;;;;;;;;85577;210;3028583;-38
2023/12/12 10:20:03;;;;;;;6.90;4.90;;;;;;;;;;85559;210;3027796;-37
2023/12/12 10:22:39;;;;;;;7.20;4.90;;;;;;;;;;85603;210;3030473;-37
2023/12/12 10:25:18;;;;;;;7.00;4.90;;;;;;;;;;85537;210;3031655;-38
2023/12/12 10:27:55;;;;;;;6.70;4.50;;;;;;;;;;85620;210;3030524;-39
2023/12/12 10:30:32;;;;;;;7.50;5.30;;;;;;;;;;85429;210;3027102;-39
2023/12/12 10:33:14;;;;;;;6.80;4.70;;;;;;;;;;85521;210;3031781;-37
2023/12/12 10:35:50;;;;;;;7.30;5.30;;;;;;;;;;85535;210;3031879;-38
2023/12/12 10:38:29;;;;;;;7.20;5.20;;;;;;;;;;85577;210;3028328;-37
2023/12/12 10:41:17;;;;;;;7.10;4.90;;;;;;;;;;85529;210;3027327;-39
2023/12/12 10:43:55;;;;;;;7.20;5.00;;;;;;;;;;85589;210;3031100;-39
2023/12/12 10:46:36;;;;;;;6.60;4.60;;;;;;;;;;85604;210;3031117;-38
2023/12/12 10:49:16;;;;;;;6.70;5.00;;;;;;;;;;85581;210;3030770;-39
2023/12/12 10:51:53;;;;;;;7.80;5.80;;;;;;;;;;85535;210;3028230;-39
2023/12/12 10:54:31;;;;;;;7.40;5.60;;;;;;;;;;85618;211;3030448;-38
2023/12/12 10:57:09;;;;;;;7.50;4.70;;;;;;;;;;85639;211;3031654;-37
2023/12/12 10:59:46;;;;;;;7.00;5.00;;;;;;;;;;85648;211;3028316;-38
2023/12/12 11:02:43;;;;;;;7.30;5.40;;;;;;;;;;85554;211;3027592;-37
2023/12/12 11:05:23;;;;;;;7.80;6.00;;;;;;;;;;85637;211;3030304;-38
2023/12/12 11:08:03;;;;;;;7.70;5.80;;;;;;;;;;85618;211;3032051;-37
2023/12/12 11:10:40;;;;;;;6.60;5.00;;;;;;;;;;85589;211;3028092;-37
2023/12/12 11:13:19;;;;;;;7.00;5.30;;;;;;;;;;85140;211;3034176;-38
2023/12/12 11:15:58;;;;;;;7.30;5.40;;;;;;;;;;85604;211;3028017;-38
2023/12/12 11:18:37;;;;;;;6.60;4.90;;;;;;;;;;85582;211;3031094;-38
2023/12/12 11:21:50;;;;;;;6.70;4.90;;;;;;;;;;85621;211;3031584;-37
2023/12/12 11:25:07;;;;;;;7.10;5.20;;;;;;;;;;85617;211;3028581;-38
2023/12/12 11:27:48;;;;;;;6.70;5.20;;;;;;;;;;85690;211;3027789;-36
2023/12/12 11:30:37;;;;;;;6.70;4.50;;;;;;;;;;85654;211;3030463;-37
2023/12/12 11:33:16;;;;;;;7.70;5.20;;;;;;;;;;85558;211;3031321;-38
2023/12/12 11:35:53;;;;;;;7.50;5.10;;;;;;;;;;85607;211;3028555;-38
2023/12/12 11:38:34;;;;;;;7.10;5.20;;;;;;;;;;85566;211;3027857;-39
2023/12/12 11:41:17;;;;;;;6.40;4.70;;;;;;;;;;85676;211;3030705;-37
2023/12/12 11:43:53;;;;;;;7.10;4.70;;;;;;;;;;85680;211;3038619;-37
2023/12/12 11:46:30;;;;;;;6.10;4.20;;;;;;;;;;85581;211;3029372;-38
2023/12/12 11:49:24;;;;;;;7.50;4.60;;;;;;;;;;85576;211;3028142;-38
2023/12/12 11:52:00;;;;;;;7.90;5.30;;;;;;;;;;85596;211;3031296;-38
2023/12/12 11:54:38;;;;;;;8.20;5.60;;;;;;;;;;85628;211;3031288;-39
2023/12/12 11:57:14;;;;;;;7.80;5.30;;;;;;;;;;85614;211;3027980;-37
2023/12/12 11:59:56;;;;;;;7.00;4.90;;;;;;;;;;85647;211;3027683;-41
2023/12/12 12:02:33;;;;;;;6.60;4.50;;;;;;;;;;85539;211;3030813;-37
2023/12/12 12:05:12;;;;;;;6.40;4.30;;;;;;;;;;85630;211;3031596;-37
2023/12/12 12:07:48;;;;;;;7.00;4.10;;;;;;;;;;85505;211;3029042;-38
2023/12/12 12:10:25;;;;;;;6.00;4.10;;;;;;;;;;85613;211;3027758;-37
2023/12/12 12:13:02;;;;;;;6.50;4.30;;;;;;;;;;85624;211;3031210;-38
2023/12/12 12:15:48;;;;;;;6.20;4.20;;;;;;;;;;85637;211;3031453;-39
2023/12/12 12:18:31;;;;;;;5.50;3.90;;;;;;;;;;85588;211;3027929;-38
2023/12/12 12:21:09;;;;;;;5.90;4.20;;;;;;;;;;85644;211;3028620;-37
2023/12/12 12:23:48;;;;;;;6.40;3.80;;;;;;;;;;85605;211;3030784;-36
2023/12/12 12:26:24;;;;;;;6.10;4.10;;;;;;;;;;85706;211;3031381;-35
2023/12/12 12:29:01;;;;;;;6.40;4.00;;;;;;;;;;85596;212;3028430;-36
2023/12/12 12:31:38;;;;;;;5.70;4.10;;;;;;;;;;85618;212;3027809;-37
2023/12/12 12:34:23;;;;;;;6.00;4.00;;;;;;;;;;85396;211;3030734;-38
2023/12/12 12:37:02;;;;;;;5.70;3.80;;;;;;;;;;85624;211;3031844;-38
2023/12/12 12:39:49;;;;;;;6.50;3.90;;;;;;;;;;85684;211;3028460;-36
2023/12/12 12:42:37;;;;;;;6.00;3.90;;;;;;;;;;85510;211;3028081;-37
2023/12/12 12:45:18;;;;;;;5.40;3.60;;;;;;;;;;85760;211;3037430;-38
2023/12/12 12:48:01;;;;;;;6.90;3.80;;;;;;;;;;85639;211;3031151;-37
2023/12/12 12:50:41;;;;;;;5.60;3.80;;;;;;;;;;85639;211;3028794;-37
2023/12/12 12:53:27;;;;;;;5.80;3.80;;;;;;;;;;85625;211;3029493;-38
2023/12/12 12:56:06;;;;;;;6.30;3.90;;;;;;;;;;85633;211;3031368;-42
2023/12/12 12:58:43;;;;;;;5.70;3.70;;;;;;;;;;85653;211;3031789;-36
2023/12/12 13:01:21;;;;;;;5.50;4.00;;;;;;;;;;85621;211;3028445;-36
2023/12/12 13:04:00;;;;;;;5.80;4.10;;;;;;;;;;85582;211;3028900;-36
2023/12/12 13:06:37;;;;;;;5.40;3.60;;;;;;;;;;85566;211;3032616;-38
2023/12/12 13:09:17;;;;;;;6.10;4.00;;;;;;;;;;85646;211;3031262;-36
2023/12/12 13:12:00;;;;;;;6.20;4.10;;;;;;;;;;85598;211;3029774;-35
2023/12/12 13:14:36;;;;;;;5.90;4.00;;;;;;;;;;85577;211;3028708;-35
2023/12/12 13:17:14;;;;;;;6.20;4.10;;;;;;;;;;85310;211;3030504;-36
2023/12/12 13:19:52;;;;;;;5.60;4.00;;;;;;;;;;85012;216;3031485;-37
2023/12/12 13:22:32;;;;;;;6.10;3.90;;;;;;;;;;85207;216;3028261;-37
2023/12/12 13:25:13;;;;;;;5.40;3.70;;;;;;;;;;85134;216;3027711;-39
2023/12/12 13:27:53;;;;;;;5.70;3.80;;;;;;;;;;85032;216;3030797;-39
2023/12/12 13:30:30;;;;;;;5.70;4.10;;;;;;;;;;85202;216;3032661;-38
2023/12/12 13:33:09;;;;;;;5.80;3.90;;;;;;;;;;85246;216;3028199;-39
2023/12/12 13:35:52;;;;;;;5.80;3.50;;;;;;;;;;85139;216;3028062;-39
2023/12/12 13:38:29;;;;;;;6.70;3.90;;;;;;;;;;85185;216;3031619;-39
2023/12/12 13:41:09;;;;;;;6.30;4.20;;;;;;;;;;85028;216;3031255;-38
2023/12/12 13:43:52;;;;;;;5.30;3.80;;;;;;;;;;85190;216;3028740;-39
2023/12/12 13:46:29;;;;;;;5.70;3.90;;;;;;;;;;85154;216;3027753;-38
2023/12/12 13:49:06;;;;;;;5.90;3.90;;;;;;;;;;85218;216;3030966;-37
2023/12/12 13:51:44;;;;;;;6.40;4.20;;;;;;;;;;85214;216;3031742;-38
2023/12/12 13:54:30;;;;;;;5.70;3.90;;;;;;;;;;85166;216;3028305;-36
2023/12/12 13:57:13;;;;;;;5.70;3.90;;;;;;;;;;84899;216;3033470;-36
2023/12/12 13:59:50;;;;;;;6.10;4.00;;;;;;;;;;85033;216;3031845;-36
2023/12/12 14:02:34;;;;;;;5.60;3.80;;;;;;;;;;85111;216;3031247;-36
2023/12/12 14:05:12;;;;;;;5.90;4.00;;;;;;;;;;85100;216;3028516;-36
2023/12/12 14:07:58;;;;;;;6.20;4.10;;;;;;;;;;85217;216;3027843;-36
2023/12/12 14:10:42;;;;;;;5.70;4.00;;;;;;;;;;85206;216;3030684;-36
2023/12/12 14:13:24;;;;;;;6.50;4.20;;;;;;;;;;85201;216;3031822;-37
2023/12/12 14:16:02;;;;;;;6.20;4.20;;;;;;;;;;85144;216;3028532;-37
2023/12/12 14:18:40;;;;;;;6.60;4.30;;;;;;;;;;85182;216;3026957;-36
2023/12/12 14:21:19;;;;;;;6.40;4.50;;;;;;;;;;85209;216;3031985;-37
2023/12/12 14:24:01;;;;;;;7.00;4.60;;;;;;;;;;85188;216;3032274;-37
2023/12/12 14:26:46;;;;;;;6.50;4.70;;;;;;;;;;85143;216;3028485;-37
2023/12/12 14:29:25;;;;;;;6.30;4.50;;;;;;;;;;85197;216;3028091;-36
2023/12/12 14:32:01;;;;;;;6.40;4.60;;;;;;;;;;85175;216;3031187;-36
2023/12/12 14:34:48;;;;;;;6.80;4.80;;;;;;;;;;85219;216;3031700;-36
2023/12/12 14:37:29;;;;;;;6.70;4.90;;;;;;;;;;84912;216;3028220;-36
2023/12/12 14:40:08;;;;;;;7.30;4.70;;;;;;;;;;85188;216;3027752;-37
2023/12/12 14:42:48;;;;;;;6.70;4.60;;;;;;;;;;85177;216;3030482;-37
2023/12/12 14:45:31;;;;;;;6.50;4.60;;;;;;;;;;85207;216;3031235;-37
2023/12/12 14:48:12;;;;;;;6.60;4.70;;;;;;;;;;85285;216;3034323;-37
2023/12/12 14:50:51;;;;;;;6.40;4.70;;;;;;;;;;84976;216;3027752;-36
2023/12/12 14:53:29;;;;;;;6.80;4.90;;;;;;;;;;85155;216;3031448;-37
2023/12/12 14:56:13;;;;;;;7.00;4.80;;;;;;;;;;85123;216;3031498;-36
2023/12/12 14:58:50;;;;;;;6.60;4.70;;;;;;;;;;85215;216;3028841;-36
2023/12/12 15:01:32;;;;;;;7.70;4.80;;;;;;;;;;85195;216;3027289;-37
2023/12/12 15:04:09;;;;;;;7.40;5.10;;;;;;;;;;85177;216;3030843;-36
2023/12/12 15:06:47;;;;;;;7.50;5.20;;;;;;;;;;85150;216;3031090;-36
2023/12/12 15:09:26;;;;;;;6.60;5.10;;;;;;;;;;85198;216;3028429;-37
2023/12/12 15:12:10;;;;;;;7.00;5.20;;;;;;;;;;85205;216;3027241;-36
2023/12/12 15:14:46;;;;;;;6.90;5.10;;;;;;;;;;85198;216;3031541;-36
2023/12/12 15:17:23;;;;;;;8.00;5.20;;;;;;;;;;85175;216;3031240;-37
2023/12/12 15:19:59;;;;;;;7.40;5.10;;;;;;;;;;85185;216;3028139;-37
2023/12/12 15:22:36;;;;;;;7.10;5.20;;;;;;;;;;85018;216;3027498;-36
2023/12/12 15:25:14;;;;;;;8.40;5.70;;;;;;;;;;85166;216;3030657;-36
2023/12/12 15:28:05;;;;;;;7.30;5.60;;;;;;;;;;85157;216;3031655;-38
2023/12/12 15:31:06;;;;;;;9.20;6.30;;;;;;;;;;85203;216;3028228;-36
2023/12/12 15:33:43;;;;;;;9.30;6.70;;;;;;;;;;85220;216;3027592;-36
2023/12/12 15:36:24;;;;;;;9.40;6.20;;;;;;;;;;85245;216;3030552;-36
2023/12/12 15:39:03;;;;;;;8.20;6.00;;;;;;;;;;85074;216;3031898;-37